Time;durP1;ratioP1;P1;durP2;ratioP2;P2;SDS_P1;SDS_P2;PMS_P1;PMS_P2;Temp;Humidity;BMP_temperature;BMP_pressure;BME280_temperature;BME280_humidity;BME280_pressure;Samples;Min_cycle;Max_cycle;Signal;HPM_P1;HPM_P2
2023/12/04 00:01:26;;;;;;;69.90;18.70;;;;;;;;;;4983378;28;20092;-77
2023/12/04 00:03:52;;;;;;;121.57;20.63;;;;;;;;;;4992301;28;20034;-77
2023/12/04 00:06:18;;;;;;;42.60;15.30;;;;;;;;;;4979396;28;20031;-77
2023/12/04 00:08:43;;;;;;;61.63;16.07;;;;;;;;;;5009980;28;20078;-78
2023/12/04 00:11:08;;;;;;;34.17;13.13;;;;;;;;;;4983686;28;20521;-77
2023/12/04 00:13:34;;;;;;;32.70;12.87;;;;;;;;;;4979424;28;20398;-77
2023/12/04 00:15:59;;;;;;;27.37;14.13;;;;;;;;;;4992771;28;20042;-77
2023/12/04 00:18:25;;;;;;;33.73;15.37;;;;;;;;;;4979892;28;20045;-77
2023/12/04 00:20:50;;;;;;;50.60;17.20;;;;;;;;;;4991383;28;20056;-77
2023/12/04 00:23:15;;;;;;;38.27;16.03;;;;;;;;;;4985234;28;20026;-77
2023/12/04 00:25:40;;;;;;;36.57;16.40;;;;;;;;;;4979809;28;20026;-78
2023/12/04 00:28:05;;;;;;;40.47;17.53;;;;;;;;;;4981379;28;20034;-77
2023/12/04 00:30:31;;;;;;;37.83;17.63;;;;;;;;;;4979343;28;20088;-78
2023/12/04 00:32:56;;;;;;;45.50;15.63;;;;;;;;;;4980929;28;20049;-77
2023/12/04 00:35:21;;;;;;;29.27;14.57;;;;;;;;;;4979744;28;20027;-77
2023/12/04 00:37:46;;;;;;;28.80;13.80;;;;;;;;;;4981719;28;20084;-77
2023/12/04 00:40:12;;;;;;;29.77;14.60;;;;;;;;;;5001272;28;20024;-78
2023/12/04 00:42:37;;;;;;;34.00;14.93;;;;;;;;;;4981924;28;20688;-77
2023/12/04 00:45:02;;;;;;;30.20;13.80;;;;;;;;;;4980316;28;20486;-78
2023/12/04 00:47:27;;;;;;;29.73;14.50;;;;;;;;;;4979545;28;20038;-77
2023/12/04 00:49:53;;;;;;;29.30;14.77;;;;;;;;;;4986293;28;20022;-77
2023/12/04 00:52:18;;;;;;;24.60;12.47;;;;;;;;;;4979989;28;20052;-77
2023/12/04 00:54:43;;;;;;;30.80;14.30;;;;;;;;;;4998960;28;20044;-77
2023/12/04 00:57:08;;;;;;;30.97;15.13;;;;;;;;;;4979834;28;20054;-78
2023/12/04 00:59:34;;;;;;;32.07;14.13;;;;;;;;;;5000609;28;20049;-77
2023/12/04 01:01:59;;;;;;;33.47;15.63;;;;;;;;;;4979426;28;20038;-77
2023/12/04 01:04:24;;;;;;;29.53;14.27;;;;;;;;;;4981912;28;20033;-77
2023/12/04 01:06:49;;;;;;;29.00;14.63;;;;;;;;;;4980295;28;20398;-77
2023/12/04 01:09:14;;;;;;;31.40;15.50;;;;;;;;;;4993632;28;20028;-78
2023/12/04 01:11:40;;;;;;;35.93;15.27;;;;;;;;;;4982913;28;20027;-78
2023/12/04 01:14:05;;;;;;;35.83;16.20;;;;;;;;;;4980207;28;20026;-78
2023/12/04 01:16:30;;;;;;;31.03;15.70;;;;;;;;;;4990037;28;20080;-78
2023/12/04 01:18:56;;;;;;;34.23;15.53;;;;;;;;;;4992107;28;20505;-78
2023/12/04 01:21:21;;;;;;;29.40;13.30;;;;;;;;;;4991566;28;20037;-78
2023/12/04 01:23:46;;;;;;;33.13;16.03;;;;;;;;;;4997940;28;20116;-78
2023/12/04 01:26:11;;;;;;;33.33;15.43;;;;;;;;;;4979475;28;20111;-78
2023/12/04 01:28:37;;;;;;;30.63;14.17;;;;;;;;;;4980172;28;20033;-78
2023/12/04 01:31:02;;;;;;;31.73;14.03;;;;;;;;;;4978884;28;20023;-78
2023/12/04 01:33:27;;;;;;;36.73;14.70;;;;;;;;;;4981848;28;20525;-78
2023/12/04 01:35:52;;;;;;;29.87;14.57;;;;;;;;;;4981146;28;20034;-79
2023/12/04 01:38:17;;;;;;;31.27;14.43;;;;;;;;;;4979477;28;20561;-78
2023/12/04 01:40:43;;;;;;;27.10;14.03;;;;;;;;;;4994091;28;20022;-79
2023/12/04 01:43:08;;;;;;;25.47;12.33;;;;;;;;;;4979903;28;20039;-78
2023/12/04 01:45:33;;;;;;;29.43;13.40;;;;;;;;;;4981586;28;20022;-78
2023/12/04 01:47:58;;;;;;;27.53;12.90;;;;;;;;;;4981458;28;20487;-77
2023/12/04 01:50:24;;;;;;;28.40;13.40;;;;;;;;;;4979366;28;20023;-78
2023/12/04 01:52:50;;;;;;;31.07;13.93;;;;;;;;;;4980941;28;20023;-78
2023/12/04 01:55:15;;;;;;;28.40;14.30;;;;;;;;;;4981526;28;20031;-78
2023/12/04 01:57:41;;;;;;;30.93;14.03;;;;;;;;;;4981186;28;20103;-78
2023/12/04 02:00:11;;;;;;;26.20;13.13;;;;;;;;;;4984783;28;20041;-78
2023/12/04 02:02:37;;;;;;;27.67;13.00;;;;;;;;;;4977909;28;20568;-79
2023/12/04 02:05:03;;;;;;;28.20;14.23;;;;;;;;;;4980541;28;20113;-78
2023/12/04 02:07:28;;;;;;;31.20;16.07;;;;;;;;;;4977725;28;20027;-78
2023/12/04 02:09:53;;;;;;;30.30;13.50;;;;;;;;;;4998613;28;20026;-78
2023/12/04 02:12:19;;;;;;;30.17;14.40;;;;;;;;;;4981027;28;20027;-78
2023/12/04 02:14:44;;;;;;;27.80;14.00;;;;;;;;;;4980967;28;20144;-77
2023/12/04 02:17:10;;;;;;;26.23;13.43;;;;;;;;;;4980143;28;20037;-78
2023/12/04 02:19:36;;;;;;;27.63;13.03;;;;;;;;;;4991965;28;20482;-78
2023/12/04 02:22:01;;;;;;;28.80;13.27;;;;;;;;;;5014473;28;20091;-78
2023/12/04 02:24:26;;;;;;;29.30;14.17;;;;;;;;;;4990447;28;20092;-78
2023/12/04 02:26:52;;;;;;;26.80;13.90;;;;;;;;;;4992541;28;20039;-78
2023/12/04 02:29:42;;;;;;;26.27;13.33;;;;;;;;;;5001504;28;20048;-78
2023/12/04 02:32:10;;;;;;;22.90;11.73;;;;;;;;;;4981257;28;20065;-77
2023/12/04 02:34:36;;;;;;;27.70;12.90;;;;;;;;;;4987240;28;20027;-77
2023/12/04 02:37:01;;;;;;;24.40;11.17;;;;;;;;;;4982802;28;20045;-77
2023/12/04 02:39:27;;;;;;;27.87;11.87;;;;;;;;;;4985613;28;20117;-78
2023/12/04 02:41:52;;;;;;;24.33;12.13;;;;;;;;;;4983636;28;20035;-78
2023/12/04 02:44:17;;;;;;;24.87;11.97;;;;;;;;;;5024556;28;20039;-78
2023/12/04 02:46:43;;;;;;;25.17;12.40;;;;;;;;;;4983896;28;20043;-78
2023/12/04 02:49:08;;;;;;;23.57;11.10;;;;;;;;;;4987875;28;20097;-79
2023/12/04 02:51:33;;;;;;;25.10;11.57;;;;;;;;;;4984090;28;20072;-78
2023/12/04 02:53:58;;;;;;;26.10;12.40;;;;;;;;;;4981959;28;20038;-78
2023/12/04 02:56:23;;;;;;;23.80;11.40;;;;;;;;;;4984005;28;20476;-78
2023/12/04 02:58:48;;;;;;;22.23;11.07;;;;;;;;;;4982235;28;20023;-77
2023/12/04 03:01:13;;;;;;;20.20;10.33;;;;;;;;;;4986248;28;20112;-78
2023/12/04 03:03:39;;;;;;;25.90;12.60;;;;;;;;;;4983363;28;20183;-79
2023/12/04 03:06:04;;;;;;;24.30;11.17;;;;;;;;;;4992067;28;20030;-77
2023/12/04 03:08:29;;;;;;;25.67;12.87;;;;;;;;;;4981859;28;20026;-77
2023/12/04 03:10:54;;;;;;;22.27;11.30;;;;;;;;;;4987105;28;20027;-77
2023/12/04 03:13:19;;;;;;;24.43;11.40;;;;;;;;;;4981252;28;20502;-77
2023/12/04 03:15:45;;;;;;;24.43;11.33;;;;;;;;;;4984488;28;20030;-77
2023/12/04 03:18:10;;;;;;;22.67;11.77;;;;;;;;;;4980861;28;20054;-77
2023/12/04 03:20:35;;;;;;;25.13;12.97;;;;;;;;;;4985840;28;20035;-78
2023/12/04 03:23:00;;;;;;;21.70;10.73;;;;;;;;;;4987815;28;20036;-78
2023/12/04 03:25:25;;;;;;;24.70;12.23;;;;;;;;;;4986635;28;20022;-78
2023/12/04 03:27:50;;;;;;;25.30;11.80;;;;;;;;;;4983776;28;20114;-78
2023/12/04 03:30:16;;;;;;;27.40;14.70;;;;;;;;;;4985136;28;20041;-78
2023/12/04 03:32:41;;;;;;;25.17;12.50;;;;;;;;;;4990284;28;20041;-78
2023/12/04 03:35:06;;;;;;;25.63;12.63;;;;;;;;;;4981033;28;20041;-78
2023/12/04 03:37:31;;;;;;;29.20;14.23;;;;;;;;;;4983167;28;20539;-77
2023/12/04 03:39:57;;;;;;;26.17;13.60;;;;;;;;;;4990989;28;20035;-77
2023/12/04 03:42:22;;;;;;;26.60;13.67;;;;;;;;;;4980788;28;20023;-78
2023/12/04 03:44:47;;;;;;;24.77;12.20;;;;;;;;;;4984031;28;20034;-78
2023/12/04 03:47:12;;;;;;;23.93;11.90;;;;;;;;;;4979959;28;20038;-74
2023/12/04 03:49:37;;;;;;;25.80;12.20;;;;;;;;;;4982173;28;20538;-75
2023/12/04 03:52:03;;;;;;;23.37;11.90;;;;;;;;;;5009351;28;20040;-76
2023/12/04 03:54:28;;;;;;;20.87;10.97;;;;;;;;;;4979703;28;20423;-75
2023/12/04 03:56:53;;;;;;;20.93;10.77;;;;;;;;;;4981792;28;20507;-75
2023/12/04 03:59:18;;;;;;;25.70;12.07;;;;;;;;;;4982502;28;20083;-75
2023/12/04 04:01:43;;;;;;;24.20;12.00;;;;;;;;;;4982629;28;20099;-75
2023/12/04 04:04:08;;;;;;;24.30;11.50;;;;;;;;;;4979306;28;20468;-74
2023/12/04 04:06:34;;;;;;;19.03;10.30;;;;;;;;;;4982570;28;20026;-75
2023/12/04 04:08:59;;;;;;;23.17;11.80;;;;;;;;;;5004473;28;20519;-76
2023/12/04 04:11:24;;;;;;;24.23;11.60;;;;;;;;;;4986468;28;20027;-76
2023/12/04 04:13:49;;;;;;;24.13;12.90;;;;;;;;;;4981754;28;20114;-76
2023/12/04 04:16:15;;;;;;;27.20;14.47;;;;;;;;;;4979216;28;20391;-76
2023/12/04 04:18:41;;;;;;;24.20;12.13;;;;;;;;;;4982261;28;20371;-76
2023/12/04 04:21:06;;;;;;;22.07;11.07;;;;;;;;;;4986116;28;20094;-75
2023/12/04 04:23:32;;;;;;;22.80;11.33;;;;;;;;;;4975267;28;20058;-76
2023/12/04 04:25:57;;;;;;;25.43;12.33;;;;;;;;;;4986510;28;20041;-75
2023/12/04 04:28:23;;;;;;;20.73;10.23;;;;;;;;;;4999235;28;20037;-76
2023/12/04 04:30:48;;;;;;;26.77;12.90;;;;;;;;;;4989870;28;20509;-76
2023/12/04 04:33:13;;;;;;;23.03;10.93;;;;;;;;;;4982189;28;20037;-75
2023/12/04 04:35:38;;;;;;;23.37;12.23;;;;;;;;;;4978299;28;20567;-76
2023/12/04 04:38:04;;;;;;;22.40;11.07;;;;;;;;;;4981428;28;21259;-76
2023/12/04 04:40:29;;;;;;;22.03;11.17;;;;;;;;;;4994930;28;20032;-75
2023/12/04 04:42:54;;;;;;;22.63;10.80;;;;;;;;;;4981116;28;20340;-76
2023/12/04 04:45:19;;;;;;;24.30;10.87;;;;;;;;;;4978759;28;20030;-76
2023/12/04 04:47:44;;;;;;;22.23;11.43;;;;;;;;;;4981727;28;20031;-76
2023/12/04 04:50:09;;;;;;;19.50;10.30;;;;;;;;;;4984069;28;20027;-76
2023/12/04 04:52:35;;;;;;;20.53;10.07;;;;;;;;;;4978862;28;20050;-77
2023/12/04 04:55:00;;;;;;;19.73;9.57;;;;;;;;;;4993614;28;20091;-76
2023/12/04 04:57:25;;;;;;;20.13;10.40;;;;;;;;;;4978468;28;20030;-74
2023/12/04 04:59:50;;;;;;;21.33;9.97;;;;;;;;;;4980073;28;20557;-76
2023/12/04 05:02:15;;;;;;;23.53;11.03;;;;;;;;;;4980912;28;20117;-76
2023/12/04 05:04:40;;;;;;;23.40;11.83;;;;;;;;;;4996674;28;20031;-76
2023/12/04 05:07:06;;;;;;;22.10;11.73;;;;;;;;;;4980483;28;20398;-76
2023/12/04 05:09:31;;;;;;;21.00;10.27;;;;;;;;;;4981682;28;20109;-76
2023/12/04 05:11:56;;;;;;;19.10;10.47;;;;;;;;;;4980441;28;20030;-76
2023/12/04 05:14:21;;;;;;;24.83;11.80;;;;;;;;;;5002648;28;20016;-75
2023/12/04 05:16:46;;;;;;;21.23;10.27;;;;;;;;;;4984924;28;20085;-75
2023/12/04 05:19:12;;;;;;;22.30;12.00;;;;;;;;;;4981435;28;20031;-76
2023/12/04 05:21:37;;;;;;;20.47;10.50;;;;;;;;;;4981554;28;20045;-76
2023/12/04 05:24:02;;;;;;;21.37;10.37;;;;;;;;;;4980839;28;20041;-76
2023/12/04 05:26:27;;;;;;;44.00;22.20;;;;;;;;;;4981617;28;20503;-76
2023/12/04 05:28:53;;;;;;;28.10;14.60;;;;;;;;;;4985412;28;20033;-75
2023/12/04 05:31:18;;;;;;;21.50;11.33;;;;;;;;;;5008963;28;20031;-73
2023/12/04 05:33:43;;;;;;;22.37;11.77;;;;;;;;;;4975282;28;20058;-74
2023/12/04 05:36:08;;;;;;;22.07;11.17;;;;;;;;;;4983290;28;20382;-75
2023/12/04 05:38:33;;;;;;;21.17;11.07;;;;;;;;;;4978640;28;20129;-74
2023/12/04 05:40:59;;;;;;;19.07;10.63;;;;;;;;;;4981470;28;20083;-74
2023/12/04 05:43:24;;;;;;;21.33;11.17;;;;;;;;;;4985292;28;20026;-73
2023/12/04 05:45:49;;;;;;;20.53;11.47;;;;;;;;;;4978685;28;20123;-75
2023/12/04 05:48:14;;;;;;;21.53;10.57;;;;;;;;;;4979356;28;20031;-74
2023/12/04 05:50:39;;;;;;;18.67;10.07;;;;;;;;;;4983440;28;20105;-74
2023/12/04 05:53:06;;;;;;;22.03;10.63;;;;;;;;;;4980852;28;20037;-74
2023/12/04 05:55:31;;;;;;;19.70;9.93;;;;;;;;;;4985534;28;20027;-76
2023/12/04 05:57:56;;;;;;;22.23;11.33;;;;;;;;;;4980941;28;20046;-76
2023/12/04 06:00:21;;;;;;;20.53;11.37;;;;;;;;;;4996515;28;20523;-77
2023/12/04 06:02:47;;;;;;;21.53;11.47;;;;;;;;;;5013024;28;20026;-76
2023/12/04 06:05:12;;;;;;;22.17;11.17;;;;;;;;;;5004675;28;20028;-77
2023/12/04 06:07:37;;;;;;;21.73;11.23;;;;;;;;;;4982366;28;20030;-77
2023/12/04 06:10:06;;;;;;;26.87;13.70;;;;;;;;;;4982938;28;20416;-75
2023/12/04 06:12:31;;;;;;;20.00;11.80;;;;;;;;;;4979650;28;20033;-77
2023/12/04 06:14:58;;;;;;;21.13;10.63;;;;;;;;;;4986670;28;20097;-76
2023/12/04 06:17:23;;;;;;;19.43;10.07;;;;;;;;;;4981046;28;20522;-77
2023/12/04 06:19:48;;;;;;;19.33;10.63;;;;;;;;;;4984769;28;20030;-76
2023/12/04 06:22:13;;;;;;;19.60;10.67;;;;;;;;;;4999439;28;20138;-76
2023/12/04 06:24:40;;;;;;;25.60;12.03;;;;;;;;;;4989444;28;20034;-76
2023/12/04 06:27:06;;;;;;;23.87;12.63;;;;;;;;;;5018668;28;20026;-76
2023/12/04 06:29:32;;;;;;;24.67;13.30;;;;;;;;;;5004671;28;20030;-76
2023/12/04 06:31:57;;;;;;;22.23;12.43;;;;;;;;;;4996246;28;20022;-76
2023/12/04 06:34:23;;;;;;;24.30;11.97;;;;;;;;;;4979936;28;20451;-74
2023/12/04 06:36:49;;;;;;;20.90;10.90;;;;;;;;;;4990323;28;20103;-76
2023/12/04 06:39:16;;;;;;;21.17;10.90;;;;;;;;;;4983832;28;20030;-76
2023/12/04 06:41:42;;;;;;;21.37;11.00;;;;;;;;;;4983731;28;20038;-75
2023/12/04 06:44:07;;;;;;;21.83;10.53;;;;;;;;;;4983138;28;20035;-76
2023/12/04 06:46:36;;;;;;;21.47;11.27;;;;;;;;;;4980418;28;20023;-77
2023/12/04 06:49:03;;;;;;;17.07;9.27;;;;;;;;;;4983151;28;20483;-76
2023/12/04 06:51:28;;;;;;;22.80;12.43;;;;;;;;;;5006588;28;20028;-76
2023/12/04 06:53:54;;;;;;;21.47;11.00;;;;;;;;;;5030289;28;20394;-76
2023/12/04 06:56:19;;;;;;;16.77;9.23;;;;;;;;;;5018285;28;20415;-75
2023/12/04 06:58:44;;;;;;;21.43;10.70;;;;;;;;;;5010007;28;20034;-76
2023/12/04 07:01:09;;;;;;;19.97;11.47;;;;;;;;;;5012768;28;20440;-76
2023/12/04 07:03:34;;;;;;;19.63;9.97;;;;;;;;;;4983491;28;20088;-76
2023/12/04 07:06:00;;;;;;;19.73;10.73;;;;;;;;;;5017694;28;20589;-76
2023/12/04 07:08:25;;;;;;;23.57;12.30;;;;;;;;;;5016683;28;20087;-75
2023/12/04 07:10:50;;;;;;;21.93;10.80;;;;;;;;;;4987624;28;20417;-76
2023/12/04 07:13:16;;;;;;;18.37;10.63;;;;;;;;;;4980495;28;20026;-75
2023/12/04 07:15:41;;;;;;;18.30;9.90;;;;;;;;;;4980317;28;20098;-76
2023/12/04 07:18:06;;;;;;;16.77;9.43;;;;;;;;;;4980725;28;20034;-76
2023/12/04 07:20:31;;;;;;;22.47;12.10;;;;;;;;;;5004000;28;20028;-76
2023/12/04 07:22:57;;;;;;;21.10;10.73;;;;;;;;;;5023993;28;20026;-76
2023/12/04 07:25:23;;;;;;;19.63;10.27;;;;;;;;;;4980609;28;20509;-76
2023/12/04 07:27:51;;;;;;;20.87;10.30;;;;;;;;;;5003238;28;20038;-75
2023/12/04 07:30:17;;;;;;;20.03;10.37;;;;;;;;;;5003235;28;20019;-76
2023/12/04 07:32:42;;;;;;;19.67;10.50;;;;;;;;;;4989166;28;20037;-75
2023/12/04 07:35:07;;;;;;;17.73;9.13;;;;;;;;;;5042904;28;20122;-75
2023/12/04 07:37:33;;;;;;;17.67;9.50;;;;;;;;;;4986624;28;20062;-76
2023/12/04 07:39:58;;;;;;;17.77;9.30;;;;;;;;;;4984222;28;20457;-75
2023/12/04 07:42:23;;;;;;;19.90;9.60;;;;;;;;;;4992767;28;20110;-75
2023/12/04 07:44:49;;;;;;;16.87;9.37;;;;;;;;;;4991497;28;20414;-74
2023/12/04 07:47:15;;;;;;;16.50;9.03;;;;;;;;;;4985309;28;20030;-76
2023/12/04 07:49:40;;;;;;;16.63;8.77;;;;;;;;;;4981810;28;20745;-76
2023/12/04 07:52:05;;;;;;;16.00;8.50;;;;;;;;;;5014340;28;20038;-76
2023/12/04 07:54:30;;;;;;;15.50;8.50;;;;;;;;;;4985932;28;20025;-75
2023/12/04 07:56:56;;;;;;;16.02;8.23;;;;;;;;;;5007979;28;20031;-75
2023/12/04 07:59:21;;;;;;;19.50;10.73;;;;;;;;;;4978701;28;20110;-75
2023/12/04 08:01:46;;;;;;;17.95;10.10;;;;;;;;;;4983516;28;20038;-75
2023/12/04 08:04:11;;;;;;;17.02;8.98;;;;;;;;;;5004656;28;20079;-76
2023/12/04 08:06:36;;;;;;;16.52;8.45;;;;;;;;;;4978585;28;20037;-76
2023/12/04 08:09:02;;;;;;;16.00;8.10;;;;;;;;;;4981796;28;20121;-75
2023/12/04 08:11:27;;;;;;;14.70;8.48;;;;;;;;;;4990117;28;20062;-76
2023/12/04 08:13:53;;;;;;;14.70;8.52;;;;;;;;;;4980384;28;20037;-75
2023/12/04 08:16:19;;;;;;;14.20;8.00;;;;;;;;;;4982128;28;20034;-75
2023/12/04 08:18:45;;;;;;;13.32;7.13;;;;;;;;;;4979025;28;20114;-75
2023/12/04 08:21:10;;;;;;;15.35;7.72;;;;;;;;;;4997960;28;20073;-74
2023/12/04 08:23:35;;;;;;;13.98;7.78;;;;;;;;;;4992204;28;20030;-76
2023/12/04 08:26:00;;;;;;;15.05;8.05;;;;;;;;;;4981010;28;20038;-75
2023/12/04 08:28:25;;;;;;;14.15;7.95;;;;;;;;;;4988411;28;20128;-76
2023/12/04 08:30:51;;;;;;;12.95;6.32;;;;;;;;;;5016352;28;20034;-75
2023/12/04 08:33:16;;;;;;;12.32;6.03;;;;;;;;;;4990587;28;20417;-76
2023/12/04 08:35:41;;;;;;;14.50;7.55;;;;;;;;;;4987979;28;20028;-76
2023/12/04 08:38:06;;;;;;;12.45;7.05;;;;;;;;;;4987472;28;20419;-75
2023/12/04 08:40:31;;;;;;;12.93;8.27;;;;;;;;;;4981828;28;20119;-76
2023/12/04 08:42:57;;;;;;;12.35;7.07;;;;;;;;;;4994502;28;20154;-75
2023/12/04 08:45:22;;;;;;;15.02;7.47;;;;;;;;;;4998713;28;20105;-76
2023/12/04 08:47:48;;;;;;;13.65;6.95;;;;;;;;;;4982165;28;20483;-76
2023/12/04 08:50:14;;;;;;;14.20;7.80;;;;;;;;;;5007705;28;20468;-76
2023/12/04 08:52:41;;;;;;;15.32;8.60;;;;;;;;;;4996557;28;20106;-76
2023/12/04 08:55:07;;;;;;;15.60;7.30;;;;;;;;;;4979651;28;20034;-76
2023/12/04 08:57:32;;;;;;;14.70;7.68;;;;;;;;;;4984070;28;20030;-76
2023/12/04 08:59:58;;;;;;;13.82;7.40;;;;;;;;;;5011062;28;20065;-76
2023/12/04 09:02:23;;;;;;;17.67;8.68;;;;;;;;;;5012760;28;20060;-76
2023/12/04 09:04:48;;;;;;;11.90;6.38;;;;;;;;;;4981657;28;20035;-75
2023/12/04 09:07:14;;;;;;;12.73;6.97;;;;;;;;;;4978932;28;20026;-76
2023/12/04 09:09:39;;;;;;;14.80;6.82;;;;;;;;;;4980140;28;20096;-76
2023/12/04 09:12:05;;;;;;;15.60;7.78;;;;;;;;;;5005673;28;20038;-75
2023/12/04 09:14:30;;;;;;;14.30;8.05;;;;;;;;;;4982803;28;20132;-76
2023/12/04 09:16:55;;;;;;;14.15;7.95;;;;;;;;;;4979894;28;20117;-76
2023/12/04 09:19:20;;;;;;;17.13;9.85;;;;;;;;;;4978468;28;20038;-76
2023/12/04 09:21:46;;;;;;;16.35;8.55;;;;;;;;;;4987232;28;20061;-76
2023/12/04 09:24:13;;;;;;;13.95;8.50;;;;;;;;;;4986381;28;20109;-76
2023/12/04 09:26:38;;;;;;;12.73;7.63;;;;;;;;;;4978037;28;20035;-76
2023/12/04 09:29:03;;;;;;;12.40;7.45;;;;;;;;;;4980497;28;20087;-76
2023/12/04 09:31:29;;;;;;;14.07;7.75;;;;;;;;;;4992731;28;20030;-76
2023/12/04 09:33:54;;;;;;;13.60;6.75;;;;;;;;;;4984440;28;20037;-75
2023/12/04 09:36:19;;;;;;;11.52;7.28;;;;;;;;;;4977099;28;20034;-76
2023/12/04 09:38:45;;;;;;;13.57;7.68;;;;;;;;;;5008704;28;20030;-76
2023/12/04 09:41:12;;;;;;;12.25;7.43;;;;;;;;;;5004803;28;20029;-76
2023/12/04 09:43:37;;;;;;;11.77;7.15;;;;;;;;;;4984667;28;20033;-76
2023/12/04 09:46:03;;;;;;;13.82;7.18;;;;;;;;;;4980727;28;20109;-76
2023/12/04 09:48:29;;;;;;;9.70;5.65;;;;;;;;;;4980181;28;20045;-76
2023/12/04 09:50:55;;;;;;;11.85;6.88;;;;;;;;;;4986389;28;20022;-76
2023/12/04 09:53:21;;;;;;;11.27;6.80;;;;;;;;;;4984719;28;20479;-76
2023/12/04 09:55:48;;;;;;;12.50;6.82;;;;;;;;;;4977609;28;20087;-76
2023/12/04 09:58:14;;;;;;;11.98;6.40;;;;;;;;;;4980115;28;20034;-76
2023/12/04 10:00:40;;;;;;;10.85;6.45;;;;;;;;;;4987875;28;20030;-76
2023/12/04 10:03:05;;;;;;;11.77;6.68;;;;;;;;;;4985195;28;20544;-76
2023/12/04 10:05:30;;;;;;;11.05;6.78;;;;;;;;;;4980817;28;20114;-76
2023/12/04 10:07:55;;;;;;;17.23;8.88;;;;;;;;;;4980522;28;20027;-75
2023/12/04 10:10:20;;;;;;;13.13;8.25;;;;;;;;;;4997986;28;20502;-76
2023/12/04 10:12:46;;;;;;;12.80;7.05;;;;;;;;;;4985671;28;20067;-76
2023/12/04 10:15:12;;;;;;;11.85;7.07;;;;;;;;;;5010369;28;20032;-76
2023/12/04 10:17:39;;;;;;;13.05;7.45;;;;;;;;;;4989758;28;20030;-76
2023/12/04 10:20:17;;;;;;;11.45;6.15;;;;;;;;;;4978319;28;20053;-76
2023/12/04 10:22:59;;;;;;;12.57;6.90;;;;;;;;;;4980406;28;20030;-76
2023/12/04 10:25:26;;;;;;;10.98;6.07;;;;;;;;;;4976735;28;20022;-76
2023/12/04 10:27:52;;;;;;;11.27;6.93;;;;;;;;;;4991818;28;20120;-76
2023/12/04 10:30:24;;;;;;;12.20;7.35;;;;;;;;;;4988456;28;20030;-76
2023/12/04 10:32:49;;;;;;;13.02;7.22;;;;;;;;;;4986612;28;20355;-76
2023/12/04 10:35:14;;;;;;;11.05;5.93;;;;;;;;;;5019199;28;20035;-76
2023/12/04 10:37:39;;;;;;;12.38;6.75;;;;;;;;;;5003536;28;20034;-76
2023/12/04 10:40:08;;;;;;;13.30;7.55;;;;;;;;;;4989177;28;20109;-76
2023/12/04 10:42:33;;;;;;;12.18;6.78;;;;;;;;;;4979540;28;20065;-76
2023/12/04 10:44:59;;;;;;;12.02;6.65;;;;;;;;;;4987979;28;20462;-76
2023/12/04 10:47:24;;;;;;;10.82;5.93;;;;;;;;;;4976513;28;20041;-76
2023/12/04 10:49:49;;;;;;;9.82;5.35;;;;;;;;;;5010359;28;20072;-76
2023/12/04 10:52:14;;;;;;;11.55;6.40;;;;;;;;;;5032546;28;20077;-76
2023/12/04 10:54:40;;;;;;;11.02;6.70;;;;;;;;;;5010859;28;20030;-76
2023/12/04 10:57:05;;;;;;;11.40;6.82;;;;;;;;;;5014405;28;20030;-76
2023/12/04 10:59:32;;;;;;;10.82;5.97;;;;;;;;;;4983734;28;20439;-78
2023/12/04 11:02:00;;;;;;;9.68;5.70;;;;;;;;;;4996782;28;20045;-76
2023/12/04 11:04:27;;;;;;;11.23;6.47;;;;;;;;;;5030354;28;20024;-76
2023/12/04 11:06:52;;;;;;;10.68;6.05;;;;;;;;;;4987704;28;20691;-77
2023/12/04 11:09:20;;;;;;;12.90;5.95;;;;;;;;;;4985552;28;20026;-76
2023/12/04 11:11:48;;;;;;;12.52;7.43;;;;;;;;;;4991954;28;20031;-76
2023/12/04 11:14:15;;;;;;;11.93;6.93;;;;;;;;;;4993425;28;20031;-76
2023/12/04 11:16:57;;;;;;;12.00;6.93;;;;;;;;;;4988875;28;20034;-77
2023/12/04 11:19:31;;;;;;;12.40;7.57;;;;;;;;;;4979618;28;20482;-75
2023/12/04 11:21:58;;;;;;;12.27;8.60;;;;;;;;;;4997443;28;20027;-74
2023/12/04 11:24:23;;;;;;;11.50;6.80;;;;;;;;;;4994498;28;20171;-76
2023/12/04 11:26:49;;;;;;;12.45;7.50;;;;;;;;;;4994252;28;20125;-76
2023/12/04 11:29:15;;;;;;;13.35;7.50;;;;;;;;;;4992547;28;20096;-75
2023/12/04 11:31:40;;;;;;;13.25;7.82;;;;;;;;;;4982995;28;20104;-75
2023/12/04 11:34:07;;;;;;;14.65;8.55;;;;;;;;;;4985950;28;20490;-75
2023/12/04 11:36:33;;;;;;;11.73;7.07;;;;;;;;;;4982985;28;20030;-75
2023/12/04 11:39:00;;;;;;;10.95;6.32;;;;;;;;;;4982274;28;20518;-75
2023/12/04 11:41:25;;;;;;;10.80;6.63;;;;;;;;;;4990062;28;20027;-75
2023/12/04 11:43:51;;;;;;;12.45;7.55;;;;;;;;;;4984403;28;20053;-75
2023/12/04 11:46:25;;;;;;;10.90;6.05;;;;;;;;;;4982632;28;20052;-75
2023/12/04 11:48:50;;;;;;;11.85;6.43;;;;;;;;;;5015334;28;20083;-76
2023/12/04 11:51:34;;;;;;;11.27;6.47;;;;;;;;;;4995412;28;20034;-76
2023/12/04 11:53:59;;;;;;;13.70;7.10;;;;;;;;;;4991838;28;20046;-76
2023/12/04 11:56:24;;;;;;;13.70;7.10;;;;;;;;;;4987765;28;20060;-76
2023/12/04 11:58:49;;;;;;;11.07;7.30;;;;;;;;;;4982221;28;20023;-75
2023/12/04 12:01:17;;;;;;;10.93;6.22;;;;;;;;;;4995869;28;20020;-75
2023/12/04 12:03:42;;;;;;;12.52;6.97;;;;;;;;;;5014801;28;20469;-76
2023/12/04 12:06:07;;;;;;;11.90;7.30;;;;;;;;;;4981941;28;20069;-76
2023/12/04 12:08:33;;;;;;;11.05;6.68;;;;;;;;;;4979103;28;20106;-76
2023/12/04 12:10:58;;;;;;;12.00;6.45;;;;;;;;;;4991472;28;20513;-76
2023/12/04 12:13:25;;;;;;;12.77;7.25;;;;;;;;;;4981742;28;20030;-76
2023/12/04 12:15:51;;;;;;;11.27;5.72;;;;;;;;;;4979484;28;20022;-76
2023/12/04 12:18:16;;;;;;;11.32;6.63;;;;;;;;;;4987885;28;20511;-76
2023/12/04 12:20:41;;;;;;;10.60;6.53;;;;;;;;;;4989057;28;20400;-76
2023/12/04 12:23:07;;;;;;;13.30;7.40;;;;;;;;;;4998527;28;20026;-76
2023/12/04 12:25:35;;;;;;;11.20;7.18;;;;;;;;;;4982251;28;20034;-75
2023/12/04 12:28:03;;;;;;;12.75;6.88;;;;;;;;;;4979973;28;20046;-76
2023/12/04 12:30:28;;;;;;;11.68;7.13;;;;;;;;;;4994646;28;20119;-76
2023/12/04 12:32:53;;;;;;;11.38;6.32;;;;;;;;;;4982197;28;20163;-76
2023/12/04 12:35:19;;;;;;;13.27;7.45;;;;;;;;;;4991877;28;20483;-76
2023/12/04 12:37:44;;;;;;;11.85;6.78;;;;;;;;;;4985566;28;21011;-76
2023/12/04 12:40:09;;;;;;;13.98;8.15;;;;;;;;;;5008681;28;20046;-76
2023/12/04 12:42:35;;;;;;;11.65;6.60;;;;;;;;;;5003150;28;20027;-76
2023/12/04 12:45:01;;;;;;;11.38;6.70;;;;;;;;;;5016299;28;20117;-75
2023/12/04 12:47:26;;;;;;;11.95;6.70;;;;;;;;;;4978783;28;20062;-76
2023/12/04 12:49:52;;;;;;;11.90;6.53;;;;;;;;;;4980622;28;20061;-76
2023/12/04 12:52:17;;;;;;;11.40;6.35;;;;;;;;;;4986323;28;20105;-76
2023/12/04 12:54:43;;;;;;;10.80;5.95;;;;;;;;;;5000516;28;20034;-76
2023/12/04 12:57:09;;;;;;;11.20;6.38;;;;;;;;;;5004299;28;20041;-76
2023/12/04 12:59:34;;;;;;;11.35;6.55;;;;;;;;;;5011996;28;20034;-76
2023/12/04 13:02:00;;;;;;;13.95;6.43;;;;;;;;;;4981394;28;20022;-75
2023/12/04 13:04:25;;;;;;;12.10;7.20;;;;;;;;;;4985699;28;20040;-76
2023/12/04 13:06:50;;;;;;;12.05;6.85;;;;;;;;;;4981220;28;20448;-76
2023/12/04 13:09:18;;;;;;;13.02;7.18;;;;;;;;;;4981466;28;20071;-75
2023/12/04 13:11:47;;;;;;;11.82;6.93;;;;;;;;;;4984318;28;20023;-76
2023/12/04 13:14:12;;;;;;;14.95;8.65;;;;;;;;;;4995781;28;20046;-75
2023/12/04 13:16:37;;;;;;;12.30;7.10;;;;;;;;;;4977970;28;20411;-75
2023/12/04 13:19:03;;;;;;;12.93;6.97;;;;;;;;;;4978259;28;20031;-76
2023/12/04 13:21:29;;;;;;;12.85;7.95;;;;;;;;;;4981150;28;20041;-75
2023/12/04 13:23:54;;;;;;;24.10;10.48;;;;;;;;;;4985448;28;20040;-76
2023/12/04 13:26:20;;;;;;;26.98;15.02;;;;;;;;;;4992887;28;20031;-76
2023/12/04 13:28:45;;;;;;;24.48;14.18;;;;;;;;;;4984730;28;20048;-76
2023/12/04 13:31:11;;;;;;;24.75;13.13;;;;;;;;;;4985223;28;20053;-75
2023/12/04 13:33:36;;;;;;;17.58;9.98;;;;;;;;;;4985592;28;20034;-76
2023/12/04 13:36:01;;;;;;;14.02;8.40;;;;;;;;;;4984852;28;20030;-76
2023/12/04 13:38:26;;;;;;;13.07;7.78;;;;;;;;;;4984539;28;20406;-74
2023/12/04 13:41:08;;;;;;;13.93;7.55;;;;;;;;;;4986621;28;20096;-76
2023/12/04 13:43:52;;;;;;;13.38;7.03;;;;;;;;;;4985702;28;20092;-75
2023/12/04 13:46:17;;;;;;;13.05;6.80;;;;;;;;;;4982227;28;20039;-76
2023/12/04 13:48:43;;;;;;;14.43;7.82;;;;;;;;;;4982942;28;20102;-75
2023/12/04 13:51:11;;;;;;;13.68;6.30;;;;;;;;;;4990638;28;20027;-75
2023/12/04 13:53:39;;;;;;;11.73;6.57;;;;;;;;;;4987127;28;20162;-76
2023/12/04 13:58:57;;;;;;;12.68;6.85;;;;;;;;;;4988091;28;20061;-76
2023/12/04 14:01:29;;;;;;;14.95;8.48;;;;;;;;;;4980482;28;20035;-76
2023/12/04 14:04:00;;;;;;;12.45;6.50;;;;;;;;;;5008197;28;20476;-76
2023/12/04 14:06:25;;;;;;;11.45;6.07;;;;;;;;;;4980315;28;20030;-76
2023/12/04 14:08:50;;;;;;;11.95;6.82;;;;;;;;;;4978269;28;20586;-76
2023/12/04 14:11:15;;;;;;;11.45;6.13;;;;;;;;;;4985776;28;20042;-76
2023/12/04 14:13:41;;;;;;;12.45;6.80;;;;;;;;;;4983794;28;20032;-75
2023/12/04 14:16:06;;;;;;;14.43;7.65;;;;;;;;;;4978478;28;20030;-76
2023/12/04 14:18:32;;;;;;;14.52;7.60;;;;;;;;;;4980615;28;20092;-75